createdAt,value
2018-04-24T00:00:14.160Z,99.90
2018-04-24T00:05:15.170Z,99.90
2018-04-24T00:10:16.161Z,99.90
2018-04-24T00:15:17.161Z,99.90
2018-04-24T00:20:18.910Z,99.90
2018-04-24T00:25:19.913Z,99.90
2018-04-24T00:30:20.902Z,99.90
2018-04-24T00:35:21.890Z,99.90
2018-04-24T00:40:22.875Z,99.90
2018-04-24T00:45:24.602Z,99.90
2018-04-24T00:50:25.587Z,99.90
2018-04-24T00:55:27.309Z,99.90
2018-04-24T01:00:28.294Z,99.90
2018-04-24T01:05:29.282Z,99.90
2018-04-24T01:10:31.004Z,99.90
2018-04-24T01:15:31.988Z,99.90
2018-04-24T01:20:32.977Z,99.90
2018-04-24T01:25:34.709Z,99.90
2018-04-24T01:30:35.710Z,99.90
2018-04-24T01:35:37.434Z,99.90
2018-04-24T01:40:38.417Z,99.90
2018-04-24T01:45:39.412Z,99.90
2018-04-24T01:50:40.406Z,99.90
2018-04-24T01:55:41.385Z,99.90
2018-04-24T02:00:42.381Z,99.90
2018-04-24T02:05:43.374Z,99.90
2018-04-24T02:10:44.371Z,99.90
2018-04-24T02:15:45.368Z,99.90
2018-04-24T02:20:46.354Z,99.90
2018-04-24T02:25:47.349Z,99.90
2018-04-24T02:30:49.086Z,99.90
2018-04-24T02:35:50.102Z,99.90
2018-04-24T02:40:51.090Z,99.90
2018-04-24T02:45:52.083Z,99.90
2018-04-24T02:50:53.087Z,99.90
2018-04-24T02:55:54.104Z,99.90
2018-04-24T03:00:55.865Z,99.90
2018-04-24T03:05:56.860Z,99.90
2018-04-24T03:10:57.846Z,99.90
2018-04-24T03:15:58.850Z,99.90
2018-04-24T03:21:00.579Z,99.90
2018-04-24T03:26:01.564Z,99.90
2018-04-24T03:31:02.552Z,99.90
2018-04-24T03:36:04.285Z,99.90
2018-04-24T03:41:05.270Z,99.90
2018-04-24T03:46:07.034Z,99.90
2018-04-24T03:51:08.024Z,99.90
2018-04-24T03:56:09.758Z,99.90
2018-04-24T04:01:10.763Z,99.90
2018-04-24T04:06:11.905Z,99.90
2018-04-24T04:11:13.642Z,99.90
2018-04-24T04:16:14.675Z,99.90
2018-04-24T04:21:28.075Z,99.90
2018-04-24T04:26:29.826Z,99.90
2018-04-24T04:31:30.842Z,99.90
2018-04-24T04:36:31.965Z,99.90
2018-04-24T04:41:33.792Z,99.90
2018-04-24T04:46:34.778Z,99.90
2018-04-24T04:51:35.857Z,99.90
2018-04-24T04:56:37.530Z,99.90
2018-04-24T05:01:38.513Z,99.90
2018-04-24T05:06:39.744Z,99.90
2018-04-24T05:11:40.734Z,99.90
2018-04-24T05:16:42.469Z,99.90
2018-04-24T05:21:43.465Z,99.90
2018-04-24T05:26:44.488Z,99.90
2018-04-24T05:31:45.511Z,99.90
2018-04-24T05:36:47.294Z,99.90
2018-04-24T05:41:48.329Z,99.90
2018-04-24T05:46:49.312Z,99.90
2018-04-24T05:51:50.450Z,99.90
2018-04-24T05:56:51.447Z,99.90
2018-04-24T06:01:52.447Z,99.90
2018-04-24T06:06:54.317Z,99.90
2018-04-24T06:11:56.069Z,99.90
2018-04-24T06:16:57.065Z,99.90
2018-04-24T06:21:58.789Z,99.90
2018-04-24T06:26:59.781Z,99.90
2018-04-24T06:32:01.548Z,99.90
2018-04-24T06:37:03.309Z,99.90
2018-04-24T06:42:04.285Z,99.90
2018-04-24T06:47:06.035Z,99.90
2018-04-24T06:52:07.042Z,99.90
2018-04-24T06:57:08.050Z,99.90
2018-04-24T07:02:09.058Z,99.90
2018-04-24T07:07:10.049Z,99.90
2018-04-24T07:12:11.054Z,99.90
2018-04-24T07:17:12.803Z,97.70
2018-04-24T07:22:13.868Z,97.70
2018-04-24T07:27:14.883Z,94.70
2018-04-24T07:32:15.885Z,96.10
2018-04-24T07:37:17.634Z,94.30
2018-04-24T07:42:18.644Z,94.40
2018-04-24T07:47:20.400Z,84.50
2018-04-24T07:52:21.426Z,84.50
2018-04-24T07:57:22.442Z,81.20
2018-04-24T08:02:23.439Z,77.30
2018-04-24T08:07:24.433Z,79.30
2018-04-24T08:12:25.439Z,80.20
2018-04-24T08:17:26.435Z,78.30
2018-04-24T08:22:38.735Z,84.10
2018-04-24T08:27:39.757Z,76.80
2018-04-24T08:32:40.762Z,73.50
2018-04-24T08:37:41.760Z,73.40
2018-04-24T08:42:43.490Z,76.70
2018-04-24T08:47:44.479Z,76.80
2018-04-24T08:52:46.201Z,68.90
2018-04-24T08:57:47.187Z,68.60
2018-04-24T09:02:48.179Z,66.30
2018-04-24T09:07:49.918Z,65.40
2018-04-24T09:12:50.924Z,65.60
2018-04-24T09:17:51.898Z,64.10
2018-04-24T09:22:52.887Z,59.00
2018-04-24T09:27:53.881Z,60.60
2018-04-24T09:32:55.611Z,58.10
2018-04-24T09:37:56.596Z,58.20
2018-04-24T09:42:57.579Z,59.30
2018-04-24T09:47:58.558Z,57.10
2018-04-24T09:52:59.549Z,58.30
2018-04-24T09:58:00.529Z,57.00
2018-04-24T10:03:01.501Z,57.10
2018-04-24T10:08:03.234Z,58.10
2018-04-24T10:13:04.268Z,58.00
2018-04-24T10:18:05.243Z,55.90
2018-04-24T10:23:06.273Z,57.00
2018-04-24T10:28:07.255Z,56.70
2018-04-24T10:33:08.264Z,54.60
2018-04-24T10:38:09.997Z,57.30
2018-04-24T10:43:10.984Z,57.20
2018-04-24T10:48:12.718Z,55.10
2018-04-24T10:53:13.706Z,55.10
2018-04-24T10:58:14.701Z,55.40
2018-04-24T11:03:15.692Z,53.50
2018-04-24T11:08:16.673Z,54.50
2018-04-24T11:13:17.654Z,54.20
2018-04-24T11:18:19.385Z,52.10
2018-04-24T11:23:20.366Z,52.00
2018-04-24T11:28:21.346Z,55.40
2018-04-24T11:33:23.066Z,54.40
2018-04-24T11:38:24.044Z,54.40
2018-04-24T11:43:25.043Z,53.50
2018-04-24T11:48:26.030Z,50.90
2018-04-24T11:53:27.021Z,50.10
2018-04-24T11:58:27.997Z,51.00
2018-04-24T12:03:29.737Z,51.10
2018-04-24T12:08:30.732Z,51.00
2018-04-24T12:13:31.756Z,49.80
2018-04-24T12:18:32.756Z,50.50
2018-04-24T12:23:33.766Z,51.50
2018-04-24T12:28:34.753Z,48.70
2018-04-24T12:33:36.498Z,47.20
2018-04-24T12:38:37.507Z,47.20
2018-04-24T12:43:38.498Z,46.40
2018-04-24T12:48:39.497Z,44.90
2018-04-24T12:53:40.484Z,44.50
2018-04-24T12:58:41.475Z,44.30
2018-04-24T13:03:42.467Z,47.10
2018-04-24T13:08:43.458Z,41.60
2018-04-24T13:13:44.469Z,45.10
2018-04-24T13:18:45.490Z,41.40
2018-04-24T13:23:46.486Z,46.80
2018-04-24T13:28:47.481Z,41.60
2018-04-24T13:33:48.477Z,41.10
2018-04-24T13:38:49.475Z,44.80
2018-04-24T13:43:50.487Z,42.40
2018-04-24T13:48:51.540Z,41.40
2018-04-24T13:53:52.481Z,41.60
2018-04-24T13:58:53.466Z,40.90
2018-04-24T14:03:54.467Z,40.90
2018-04-24T14:08:56.198Z,40.80
2018-04-24T14:13:57.197Z,41.50
2018-04-24T14:18:58.930Z,38.90
2018-04-24T14:23:59.969Z,38.80
2018-04-24T14:29:00.975Z,38.90
2018-04-24T14:34:01.970Z,37.80
2018-04-24T14:39:02.979Z,37.00
2018-04-24T14:44:03.970Z,37.90
2018-04-24T14:49:05.694Z,36.90
2018-04-24T14:54:06.666Z,36.80
2018-04-24T14:59:07.648Z,39.20
2018-04-24T15:04:08.617Z,37.50
2018-04-24T15:09:10.399Z,37.70
2018-04-24T15:14:12.117Z,38.30
2018-04-24T15:19:13.150Z,38.30
2018-04-24T15:24:14.146Z,37.70
2018-04-24T15:29:15.137Z,38.80
2018-04-24T15:34:16.874Z,39.10
2018-04-24T15:39:17.887Z,39.00
2018-04-24T15:44:18.891Z,39.80
2018-04-24T15:49:19.985Z,38.70
2018-04-24T15:54:20.926Z,41.20
2018-04-24T15:59:21.910Z,40.80
2018-04-24T16:04:23.648Z,42.50
2018-04-24T16:09:24.642Z,42.40
2018-04-24T16:14:26.401Z,41.80
2018-04-24T16:19:28.188Z,43.20
2018-04-24T16:24:29.151Z,43.20
2018-04-24T16:29:30.192Z,42.90
2018-04-24T16:34:31.178Z,42.30
2018-04-24T16:39:32.187Z,44.10
2018-04-24T16:44:33.198Z,42.30
2018-04-24T16:49:34.199Z,43.20
2018-04-24T16:54:35.197Z,44.60
2018-04-24T16:59:36.942Z,44.40
2018-04-24T17:04:37.950Z,44.30
2018-04-24T17:09:38.962Z,44.10
2018-04-24T17:14:39.954Z,45.80
2018-04-24T17:19:40.959Z,45.10
2018-04-24T17:24:41.950Z,47.20
2018-04-24T17:29:43.698Z,46.20
2018-04-24T17:34:44.682Z,46.20
2018-04-24T17:39:46.429Z,46.60
2018-04-24T17:44:47.414Z,46.60
2018-04-24T17:49:49.143Z,47.20
2018-04-24T17:54:50.124Z,47.10
2018-04-24T17:59:51.102Z,49.40
2018-04-24T18:04:52.847Z,49.00
2018-04-24T18:09:53.813Z,48.90
2018-04-24T18:14:54.790Z,50.70
2018-04-24T18:19:56.518Z,50.20
2018-04-24T18:24:57.505Z,50.20
2018-04-24T18:29:58.489Z,49.30
2018-04-24T18:35:00.214Z,48.40
2018-04-24T18:40:01.228Z,48.40
2018-04-24T18:45:02.234Z,49.30
2018-04-24T18:50:03.358Z,49.50
2018-04-24T18:55:04.365Z,50.60
2018-04-24T19:00:05.493Z,50.70
2018-04-24T19:05:06.494Z,51.10
2018-04-24T19:10:07.545Z,51.90
2018-04-24T19:15:09.293Z,52.10
2018-04-24T19:20:10.339Z,52.10
2018-04-24T19:25:17.609Z,52.80
2018-04-24T19:30:18.715Z,53.10
2018-04-24T19:35:19.725Z,54.70
2018-04-24T19:40:27.693Z,55.40
2018-04-24T19:45:28.735Z,55.40
2018-04-24T19:50:29.730Z,56.10
2018-04-24T19:55:30.724Z,57.20
2018-04-24T20:00:32.454Z,58.30
2018-04-24T20:05:33.491Z,58.20
2018-04-24T20:10:34.653Z,58.00
2018-04-24T20:15:35.557Z,57.80
2018-04-24T20:20:36.552Z,57.40
2018-04-24T20:25:37.546Z,57.90
2018-04-24T20:30:38.547Z,60.70
2018-04-24T20:35:40.287Z,64.90
2018-04-24T20:40:41.296Z,64.80
2018-04-24T20:45:42.301Z,64.20
2018-04-24T20:50:43.313Z,64.50
2018-04-24T20:55:44.310Z,66.90
2018-04-24T21:00:45.363Z,66.10
2018-04-24T21:05:47.094Z,66.60
2018-04-24T21:10:48.105Z,66.60
2018-04-24T21:15:49.131Z,67.40
2018-04-24T21:20:50.158Z,67.30
2018-04-24T21:25:51.910Z,67.60
2018-04-24T21:30:52.910Z,67.50
2018-04-24T21:35:53.906Z,67.70
2018-04-24T21:40:54.902Z,67.20
2018-04-24T21:45:56.694Z,67.70
2018-04-24T21:50:57.709Z,67.60
2018-04-24T21:55:58.714Z,68.20
2018-04-24T22:00:59.737Z,65.60
2018-04-24T22:06:00.738Z,65.00
2018-04-24T22:11:01.811Z,64.80
2018-04-24T22:16:04.331Z,66.10
2018-04-24T22:21:05.408Z,66.10
2018-04-24T22:26:06.374Z,67.40
2018-04-24T22:31:08.122Z,68.70
2018-04-24T22:36:09.142Z,68.50
2018-04-24T22:41:10.150Z,67.50
2018-04-24T22:46:11.174Z,65.30
2018-04-24T22:51:12.197Z,65.80
2018-04-24T22:56:13.237Z,66.20
2018-04-24T23:01:14.982Z,70.40
2018-04-24T23:06:16.040Z,70.40
2018-04-24T23:11:29.438Z,71.20
2018-04-24T23:16:42.917Z,70.70
2018-04-24T23:21:43.798Z,71.40
2018-04-24T23:26:44.846Z,76.10
2018-04-24T23:31:45.842Z,80.10
2018-04-24T23:36:47.601Z,83.50
2018-04-24T23:41:48.659Z,83.60
2018-04-24T23:46:49.658Z,85.70
2018-04-24T23:51:50.739Z,86.60
2018-04-24T23:56:51.749Z,86.50
